sensor_id;sensor_type;location;lat;lon;timestamp;P1;durP1;ratioP1;P2;durP2;ratioP2
24223;SDS011;12359;49.716;9.212;2024-03-02T00:00:25;0.20;;;0.20;;
24223;SDS011;12359;49.716;9.212;2024-03-02T00:02:52;0.20;;;0.20;;
24223;SDS011;12359;49.716;9.212;2024-03-02T00:05:20;0.20;;;0.20;;
24223;SDS011;12359;49.716;9.212;2024-03-02T00:07:54;0.20;;;0.20;;
24223;SDS011;12359;49.716;9.212;2024-03-02T00:10:22;0.30;;;0.30;;
24223;SDS011;12359;49.716;9.212;2024-03-02T00:12:53;0.20;;;0.20;;
24223;SDS011;12359;49.716;9.212;2024-03-02T00:17:55;0.30;;;0.30;;
24223;SDS011;12359;49.716;9.212;2024-03-02T00:20:22;0.20;;;0.20;;
24223;SDS011;12359;49.716;9.212;2024-03-02T00:22:48;0.20;;;0.20;;
24223;SDS011;12359;49.716;9.212;2024-03-02T00:25:15;0.20;;;0.20;;
24223;SDS011;12359;49.716;9.212;2024-03-02T00:27:41;0.20;;;0.20;;
24223;SDS011;12359;49.716;9.212;2024-03-02T00:33:08;0.20;;;0.20;;
24223;SDS011;12359;49.716;9.212;2024-03-02T00:35:35;0.20;;;0.20;;
24223;SDS011;12359;49.716;9.212;2024-03-02T00:38:04;0.20;;;0.20;;
24223;SDS011;12359;49.716;9.212;2024-03-02T00:40:33;0.20;;;0.20;;
24223;SDS011;12359;49.716;9.212;2024-03-02T00:42:59;0.20;;;0.20;;
24223;SDS011;12359;49.716;9.212;2024-03-02T00:45:26;0.20;;;0.20;;
24223;SDS011;12359;49.716;9.212;2024-03-02T00:47:52;0.20;;;0.20;;
24223;SDS011;12359;49.716;9.212;2024-03-02T00:50:18;0.20;;;0.20;;
24223;SDS011;12359;49.716;9.212;2024-03-02T00:52:44;0.20;;;0.20;;
24223;SDS011;12359;49.716;9.212;2024-03-02T00:55:13;0.30;;;0.30;;
24223;SDS011;12359;49.716;9.212;2024-03-02T00:57:39;0.20;;;0.20;;
24223;SDS011;12359;49.716;9.212;2024-03-02T01:00:05;0.20;;;0.20;;
24223;SDS011;12359;49.716;9.212;2024-03-02T01:02:35;0.20;;;0.20;;
24223;SDS011;12359;49.716;9.212;2024-03-02T01:05:01;0.30;;;0.30;;
24223;SDS011;12359;49.716;9.212;2024-03-02T01:07:26;0.20;;;0.20;;
24223;SDS011;12359;49.716;9.212;2024-03-02T01:09:52;0.20;;;0.20;;
24223;SDS011;12359;49.716;9.212;2024-03-02T01:12:18;0.20;;;0.20;;
24223;SDS011;12359;49.716;9.212;2024-03-02T01:14:43;0.20;;;0.20;;
24223;SDS011;12359;49.716;9.212;2024-03-02T01:17:09;0.30;;;0.30;;
24223;SDS011;12359;49.716;9.212;2024-03-02T01:19:35;0.20;;;0.20;;
24223;SDS011;12359;49.716;9.212;2024-03-02T01:22:00;0.30;;;0.30;;
24223;SDS011;12359;49.716;9.212;2024-03-02T01:24:27;0.20;;;0.20;;
24223;SDS011;12359;49.716;9.212;2024-03-02T01:26:53;0.20;;;0.20;;
24223;SDS011;12359;49.716;9.212;2024-03-02T01:29:19;0.20;;;0.20;;
24223;SDS011;12359;49.716;9.212;2024-03-02T01:31:44;0.20;;;0.20;;
24223;SDS011;12359;49.716;9.212;2024-03-02T01:34:10;0.20;;;0.20;;
24223;SDS011;12359;49.716;9.212;2024-03-02T01:36:37;0.20;;;0.20;;
24223;SDS011;12359;49.716;9.212;2024-03-02T01:39:03;0.20;;;0.20;;
24223;SDS011;12359;49.716;9.212;2024-03-02T01:41:29;0.20;;;0.20;;
24223;SDS011;12359;49.716;9.212;2024-03-02T01:43:55;0.20;;;0.20;;
24223;SDS011;12359;49.716;9.212;2024-03-02T01:46:20;0.28;;;0.28;;
24223;SDS011;12359;49.716;9.212;2024-03-02T01:48:46;0.20;;;0.20;;
24223;SDS011;12359;49.716;9.212;2024-03-02T01:51:12;0.20;;;0.20;;
24223;SDS011;12359;49.716;9.212;2024-03-02T01:53:38;0.20;;;0.20;;
24223;SDS011;12359;49.716;9.212;2024-03-02T01:56:04;0.20;;;0.20;;
24223;SDS011;12359;49.716;9.212;2024-03-02T01:58:30;0.20;;;0.20;;
24223;SDS011;12359;49.716;9.212;2024-03-02T02:00:55;0.30;;;0.30;;
24223;SDS011;12359;49.716;9.212;2024-03-02T02:03:21;0.30;;;0.30;;
24223;SDS011;12359;49.716;9.212;2024-03-02T02:05:47;0.20;;;0.20;;
24223;SDS011;12359;49.716;9.212;2024-03-02T02:08:13;0.30;;;0.30;;
24223;SDS011;12359;49.716;9.212;2024-03-02T02:10:38;0.20;;;0.20;;
24223;SDS011;12359;49.716;9.212;2024-03-02T02:13:04;0.20;;;0.20;;
24223;SDS011;12359;49.716;9.212;2024-03-02T02:15:30;0.20;;;0.20;;
24223;SDS011;12359;49.716;9.212;2024-03-02T02:17:57;0.30;;;0.30;;
24223;SDS011;12359;49.716;9.212;2024-03-02T02:20:23;0.20;;;0.20;;
24223;SDS011;12359;49.716;9.212;2024-03-02T02:23:02;0.20;;;0.20;;
24223;SDS011;12359;49.716;9.212;2024-03-02T02:25:30;0.20;;;0.20;;
24223;SDS011;12359;49.716;9.212;2024-03-02T02:27:56;0.20;;;0.20;;
24223;SDS011;12359;49.716;9.212;2024-03-02T02:30:24;0.20;;;0.20;;
24223;SDS011;12359;49.716;9.212;2024-03-02T02:32:50;0.20;;;0.20;;
24223;SDS011;12359;49.716;9.212;2024-03-02T02:35:16;0.20;;;0.20;;
24223;SDS011;12359;49.716;9.212;2024-03-02T02:37:42;0.25;;;0.25;;
24223;SDS011;12359;49.716;9.212;2024-03-02T02:40:09;0.20;;;0.20;;
24223;SDS011;12359;49.716;9.212;2024-03-02T02:42:35;0.20;;;0.20;;
24223;SDS011;12359;49.716;9.212;2024-03-02T02:45:00;0.30;;;0.30;;
24223;SDS011;12359;49.716;9.212;2024-03-02T02:47:26;0.20;;;0.20;;
24223;SDS011;12359;49.716;9.212;2024-03-02T02:49:53;0.22;;;0.22;;
24223;SDS011;12359;49.716;9.212;2024-03-02T02:52:19;0.20;;;0.20;;
24223;SDS011;12359;49.716;9.212;2024-03-02T02:54:46;0.20;;;0.20;;
24223;SDS011;12359;49.716;9.212;2024-03-02T02:57:12;0.20;;;0.20;;
24223;SDS011;12359;49.716;9.212;2024-03-02T02:59:37;0.30;;;0.30;;
24223;SDS011;12359;49.716;9.212;2024-03-02T03:02:03;0.20;;;0.20;;
24223;SDS011;12359;49.716;9.212;2024-03-02T03:04:29;0.20;;;0.20;;
24223;SDS011;12359;49.716;9.212;2024-03-02T03:06:54;0.30;;;0.30;;
24223;SDS011;12359;49.716;9.212;2024-03-02T03:09:20;0.20;;;0.20;;
24223;SDS011;12359;49.716;9.212;2024-03-02T03:11:46;0.20;;;0.20;;
24223;SDS011;12359;49.716;9.212;2024-03-02T03:14:11;0.20;;;0.20;;
24223;SDS011;12359;49.716;9.212;2024-03-02T03:16:37;0.30;;;0.30;;
24223;SDS011;12359;49.716;9.212;2024-03-02T03:19:03;0.28;;;0.28;;
24223;SDS011;12359;49.716;9.212;2024-03-02T03:21:29;0.30;;;0.30;;
24223;SDS011;12359;49.716;9.212;2024-03-02T03:23:54;0.22;;;0.22;;
24223;SDS011;12359;49.716;9.212;2024-03-02T03:26:20;0.20;;;0.20;;
24223;SDS011;12359;49.716;9.212;2024-03-02T03:28:46;0.30;;;0.30;;
24223;SDS011;12359;49.716;9.212;2024-03-02T03:31:11;0.30;;;0.30;;
24223;SDS011;12359;49.716;9.212;2024-03-02T03:33:37;0.20;;;0.20;;
24223;SDS011;12359;49.716;9.212;2024-03-02T03:36:03;0.20;;;0.20;;
24223;SDS011;12359;49.716;9.212;2024-03-02T03:38:29;0.28;;;0.28;;
24223;SDS011;12359;49.716;9.212;2024-03-02T03:40:55;0.20;;;0.20;;
24223;SDS011;12359;49.716;9.212;2024-03-02T03:43:21;0.20;;;0.20;;
24223;SDS011;12359;49.716;9.212;2024-03-02T03:45:46;0.20;;;0.20;;
24223;SDS011;12359;49.716;9.212;2024-03-02T03:48:12;0.20;;;0.20;;
24223;SDS011;12359;49.716;9.212;2024-03-02T03:50:38;0.20;;;0.20;;
24223;SDS011;12359;49.716;9.212;2024-03-02T03:53:03;0.20;;;0.20;;
24223;SDS011;12359;49.716;9.212;2024-03-02T03:55:29;0.20;;;0.20;;
24223;SDS011;12359;49.716;9.212;2024-03-02T03:57:55;0.20;;;0.20;;
24223;SDS011;12359;49.716;9.212;2024-03-02T04:00:20;0.30;;;0.30;;
24223;SDS011;12359;49.716;9.212;2024-03-02T04:02:46;0.20;;;0.20;;
24223;SDS011;12359;49.716;9.212;2024-03-02T04:05:12;0.20;;;0.20;;
24223;SDS011;12359;49.716;9.212;2024-03-02T04:07:38;0.30;;;0.30;;
24223;SDS011;12359;49.716;9.212;2024-03-02T04:10:06;0.20;;;0.20;;
24223;SDS011;12359;49.716;9.212;2024-03-02T04:12:33;0.20;;;0.20;;
24223;SDS011;12359;49.716;9.212;2024-03-02T04:15:00;0.20;;;0.20;;
24223;SDS011;12359;49.716;9.212;2024-03-02T04:17:26;0.20;;;0.20;;
24223;SDS011;12359;49.716;9.212;2024-03-02T04:19:52;0.30;;;0.30;;
24223;SDS011;12359;49.716;9.212;2024-03-02T04:22:18;0.20;;;0.20;;
24223;SDS011;12359;49.716;9.212;2024-03-02T04:24:43;0.28;;;0.28;;
24223;SDS011;12359;49.716;9.212;2024-03-02T04:27:09;0.20;;;0.20;;
24223;SDS011;12359;49.716;9.212;2024-03-02T04:29:35;0.30;;;0.30;;
24223;SDS011;12359;49.716;9.212;2024-03-02T04:32:00;0.30;;;0.30;;
24223;SDS011;12359;49.716;9.212;2024-03-02T04:34:26;0.20;;;0.20;;
24223;SDS011;12359;49.716;9.212;2024-03-02T04:36:52;0.30;;;0.30;;
24223;SDS011;12359;49.716;9.212;2024-03-02T04:39:17;0.30;;;0.30;;
24223;SDS011;12359;49.716;9.212;2024-03-02T04:41:43;0.20;;;0.20;;
24223;SDS011;12359;49.716;9.212;2024-03-02T04:44:09;0.30;;;0.30;;
24223;SDS011;12359;49.716;9.212;2024-03-02T04:46:35;0.20;;;0.20;;
24223;SDS011;12359;49.716;9.212;2024-03-02T04:49:00;0.20;;;0.20;;
24223;SDS011;12359;49.716;9.212;2024-03-02T04:51:26;0.20;;;0.20;;
24223;SDS011;12359;49.716;9.212;2024-03-02T04:53:52;0.20;;;0.20;;
24223;SDS011;12359;49.716;9.212;2024-03-02T04:56:17;0.30;;;0.30;;
24223;SDS011;12359;49.716;9.212;2024-03-02T04:59:01;0.20;;;0.20;;
24223;SDS011;12359;49.716;9.212;2024-03-02T05:01:27;0.30;;;0.30;;
24223;SDS011;12359;49.716;9.212;2024-03-02T05:03:53;0.30;;;0.30;;
24223;SDS011;12359;49.716;9.212;2024-03-02T05:06:18;0.30;;;0.30;;
24223;SDS011;12359;49.716;9.212;2024-03-02T05:08:44;0.30;;;0.30;;
24223;SDS011;12359;49.716;9.212;2024-03-02T05:11:10;0.20;;;0.20;;
24223;SDS011;12359;49.716;9.212;2024-03-02T05:14:06;0.30;;;0.30;;
24223;SDS011;12359;49.716;9.212;2024-03-02T05:16:33;0.20;;;0.20;;
24223;SDS011;12359;49.716;9.212;2024-03-02T05:18:59;0.20;;;0.20;;
24223;SDS011;12359;49.716;9.212;2024-03-02T05:21:25;0.20;;;0.20;;
24223;SDS011;12359;49.716;9.212;2024-03-02T05:23:51;0.30;;;0.30;;
24223;SDS011;12359;49.716;9.212;2024-03-02T05:26:16;0.30;;;0.30;;
24223;SDS011;12359;49.716;9.212;2024-03-02T05:28:42;0.20;;;0.20;;
24223;SDS011;12359;49.716;9.212;2024-03-02T05:31:11;0.20;;;0.20;;
24223;SDS011;12359;49.716;9.212;2024-03-02T05:33:39;0.20;;;0.20;;
24223;SDS011;12359;49.716;9.212;2024-03-02T05:36:06;0.20;;;0.20;;
24223;SDS011;12359;49.716;9.212;2024-03-02T05:38:32;0.20;;;0.20;;
24223;SDS011;12359;49.716;9.212;2024-03-02T05:40:59;0.20;;;0.20;;
24223;SDS011;12359;49.716;9.212;2024-03-02T05:43:25;0.20;;;0.20;;
24223;SDS011;12359;49.716;9.212;2024-03-02T05:45:51;0.20;;;0.20;;
24223;SDS011;12359;49.716;9.212;2024-03-02T05:48:17;0.20;;;0.20;;
24223;SDS011;12359;49.716;9.212;2024-03-02T05:50:42;0.20;;;0.20;;
24223;SDS011;12359;49.716;9.212;2024-03-02T05:53:08;0.30;;;0.30;;
24223;SDS011;12359;49.716;9.212;2024-03-02T05:55:34;0.20;;;0.20;;
24223;SDS011;12359;49.716;9.212;2024-03-02T05:57:59;0.20;;;0.20;;
24223;SDS011;12359;49.716;9.212;2024-03-02T06:00:31;0.25;;;0.25;;
24223;SDS011;12359;49.716;9.212;2024-03-02T06:02:57;0.20;;;0.20;;
24223;SDS011;12359;49.716;9.212;2024-03-02T06:05:23;0.25;;;0.25;;
24223;SDS011;12359;49.716;9.212;2024-03-02T06:07:49;0.20;;;0.20;;
24223;SDS011;12359;49.716;9.212;2024-03-02T06:10:15;0.20;;;0.20;;
24223;SDS011;12359;49.716;9.212;2024-03-02T06:12:41;0.20;;;0.20;;
24223;SDS011;12359;49.716;9.212;2024-03-02T06:15:07;0.20;;;0.20;;
24223;SDS011;12359;49.716;9.212;2024-03-02T06:17:34;0.20;;;0.20;;
24223;SDS011;12359;49.716;9.212;2024-03-02T06:20:00;0.20;;;0.20;;
24223;SDS011;12359;49.716;9.212;2024-03-02T06:22:26;0.20;;;0.20;;
24223;SDS011;12359;49.716;9.212;2024-03-02T06:24:52;0.20;;;0.20;;
24223;SDS011;12359;49.716;9.212;2024-03-02T06:27:18;0.20;;;0.20;;
24223;SDS011;12359;49.716;9.212;2024-03-02T06:29:43;0.20;;;0.20;;
24223;SDS011;12359;49.716;9.212;2024-03-02T06:32:09;0.20;;;0.20;;
24223;SDS011;12359;49.716;9.212;2024-03-02T06:34:35;0.20;;;0.20;;
24223;SDS011;12359;49.716;9.212;2024-03-02T06:37:00;0.20;;;0.20;;
24223;SDS011;12359;49.716;9.212;2024-03-02T06:39:26;0.20;;;0.20;;
24223;SDS011;12359;49.716;9.212;2024-03-02T06:41:52;0.20;;;0.20;;
24223;SDS011;12359;49.716;9.212;2024-03-02T06:44:17;0.20;;;0.20;;
24223;SDS011;12359;49.716;9.212;2024-03-02T06:46:43;0.20;;;0.20;;
24223;SDS011;12359;49.716;9.212;2024-03-02T06:49:09;0.30;;;0.30;;
24223;SDS011;12359;49.716;9.212;2024-03-02T06:51:37;0.30;;;0.30;;
24223;SDS011;12359;49.716;9.212;2024-03-02T06:54:03;0.20;;;0.20;;
24223;SDS011;12359;49.716;9.212;2024-03-02T06:56:28;0.20;;;0.20;;
24223;SDS011;12359;49.716;9.212;2024-03-02T06:58:55;0.20;;;0.20;;
24223;SDS011;12359;49.716;9.212;2024-03-02T07:01:21;0.20;;;0.20;;
24223;SDS011;12359;49.716;9.212;2024-03-02T07:03:47;0.20;;;0.20;;
24223;SDS011;12359;49.716;9.212;2024-03-02T07:06:12;0.20;;;0.20;;
24223;SDS011;12359;49.716;9.212;2024-03-02T07:08:38;0.20;;;0.20;;
24223;SDS011;12359;49.716;9.212;2024-03-02T07:11:04;0.20;;;0.20;;
24223;SDS011;12359;49.716;9.212;2024-03-02T07:13:29;0.20;;;0.20;;
24223;SDS011;12359;49.716;9.212;2024-03-02T07:15:55;0.20;;;0.20;;
24223;SDS011;12359;49.716;9.212;2024-03-02T07:18:35;0.20;;;0.20;;
24223;SDS011;12359;49.716;9.212;2024-03-02T07:21:10;0.20;;;0.20;;
24223;SDS011;12359;49.716;9.212;2024-03-02T07:23:36;0.20;;;0.20;;
24223;SDS011;12359;49.716;9.212;2024-03-02T07:26:01;0.20;;;0.20;;
24223;SDS011;12359;49.716;9.212;2024-03-02T07:28:28;0.20;;;0.20;;
24223;SDS011;12359;49.716;9.212;2024-03-02T07:30:58;0.20;;;0.20;;
24223;SDS011;12359;49.716;9.212;2024-03-02T07:33:24;0.20;;;0.20;;
24223;SDS011;12359;49.716;9.212;2024-03-02T07:35:51;0.20;;;0.20;;
24223;SDS011;12359;49.716;9.212;2024-03-02T07:38:17;0.20;;;0.20;;
24223;SDS011;12359;49.716;9.212;2024-03-02T07:40:43;0.20;;;0.20;;
24223;SDS011;12359;49.716;9.212;2024-03-02T07:43:08;0.22;;;0.22;;
24223;SDS011;12359;49.716;9.212;2024-03-02T07:45:34;0.20;;;0.20;;
24223;SDS011;12359;49.716;9.212;2024-03-02T07:48:03;0.20;;;0.20;;
24223;SDS011;12359;49.716;9.212;2024-03-02T07:50:29;0.20;;;0.20;;
24223;SDS011;12359;49.716;9.212;2024-03-02T07:53:00;0.20;;;0.20;;
24223;SDS011;12359;49.716;9.212;2024-03-02T07:55:26;0.20;;;0.20;;
24223;SDS011;12359;49.716;9.212;2024-03-02T07:57:52;0.28;;;0.28;;
24223;SDS011;12359;49.716;9.212;2024-03-02T08:00:18;0.20;;;0.20;;
24223;SDS011;12359;49.716;9.212;2024-03-02T08:02:44;0.30;;;0.30;;
24223;SDS011;12359;49.716;9.212;2024-03-02T08:05:09;0.20;;;0.20;;
24223;SDS011;12359;49.716;9.212;2024-03-02T08:07:35;0.20;;;0.20;;
24223;SDS011;12359;49.716;9.212;2024-03-02T08:10:01;0.20;;;0.20;;
24223;SDS011;12359;49.716;9.212;2024-03-02T08:12:27;0.20;;;0.20;;
24223;SDS011;12359;49.716;9.212;2024-03-02T08:14:52;0.20;;;0.20;;
24223;SDS011;12359;49.716;9.212;2024-03-02T08:17:18;0.20;;;0.20;;
24223;SDS011;12359;49.716;9.212;2024-03-02T08:19:44;0.20;;;0.20;;
24223;SDS011;12359;49.716;9.212;2024-03-02T08:22:09;0.20;;;0.20;;
24223;SDS011;12359;49.716;9.212;2024-03-02T08:24:35;0.20;;;0.20;;
24223;SDS011;12359;49.716;9.212;2024-03-02T08:27:01;0.20;;;0.20;;
24223;SDS011;12359;49.716;9.212;2024-03-02T08:29:27;0.20;;;0.20;;
24223;SDS011;12359;49.716;9.212;2024-03-02T08:31:53;0.20;;;0.20;;
24223;SDS011;12359;49.716;9.212;2024-03-02T08:34:19;0.20;;;0.20;;
24223;SDS011;12359;49.716;9.212;2024-03-02T08:36:46;0.20;;;0.20;;
24223;SDS011;12359;49.716;9.212;2024-03-02T08:39:11;0.20;;;0.20;;
24223;SDS011;12359;49.716;9.212;2024-03-02T08:41:41;0.20;;;0.20;;
24223;SDS011;12359;49.716;9.212;2024-03-02T08:44:08;0.20;;;0.20;;
24223;SDS011;12359;49.716;9.212;2024-03-02T08:46:34;0.20;;;0.20;;
24223;SDS011;12359;49.716;9.212;2024-03-02T08:49:00;0.20;;;0.20;;
24223;SDS011;12359;49.716;9.212;2024-03-02T08:51:25;0.20;;;0.20;;
24223;SDS011;12359;49.716;9.212;2024-03-02T08:53:51;0.20;;;0.20;;
24223;SDS011;12359;49.716;9.212;2024-03-02T08:56:17;0.20;;;0.20;;
24223;SDS011;12359;49.716;9.212;2024-03-02T08:58:43;0.20;;;0.20;;
24223;SDS011;12359;49.716;9.212;2024-03-02T09:01:09;0.20;;;0.20;;
24223;SDS011;12359;49.716;9.212;2024-03-02T09:03:36;0.20;;;0.20;;
24223;SDS011;12359;49.716;9.212;2024-03-02T09:06:02;0.20;;;0.20;;
24223;SDS011;12359;49.716;9.212;2024-03-02T09:08:28;0.20;;;0.20;;
24223;SDS011;12359;49.716;9.212;2024-03-02T09:10:54;0.20;;;0.20;;
24223;SDS011;12359;49.716;9.212;2024-03-02T09:13:20;0.20;;;0.20;;
24223;SDS011;12359;49.716;9.212;2024-03-02T09:15:47;0.20;;;0.20;;
24223;SDS011;12359;49.716;9.212;2024-03-02T09:18:13;0.20;;;0.20;;
24223;SDS011;12359;49.716;9.212;2024-03-02T09:20:38;0.20;;;0.20;;
24223;SDS011;12359;49.716;9.212;2024-03-02T09:23:04;0.20;;;0.20;;
24223;SDS011;12359;49.716;9.212;2024-03-02T09:25:30;0.13;;;0.13;;
24223;SDS011;12359;49.716;9.212;2024-03-02T09:27:55;0.20;;;0.20;;
24223;SDS011;12359;49.716;9.212;2024-03-02T09:30:21;0.20;;;0.20;;
24223;SDS011;12359;49.716;9.212;2024-03-02T09:32:47;0.20;;;0.20;;
24223;SDS011;12359;49.716;9.212;2024-03-02T09:35:12;0.10;;;0.10;;
24223;SDS011;12359;49.716;9.212;2024-03-02T09:37:38;0.10;;;0.10;;
24223;SDS011;12359;49.716;9.212;2024-03-02T09:40:04;0.10;;;0.10;;
24223;SDS011;12359;49.716;9.212;2024-03-02T09:42:31;0.17;;;0.17;;
24223;SDS011;12359;49.716;9.212;2024-03-02T09:44:57;0.20;;;0.20;;
24223;SDS011;12359;49.716;9.212;2024-03-02T09:47:23;0.15;;;0.15;;
24223;SDS011;12359;49.716;9.212;2024-03-02T09:49:49;0.17;;;0.17;;
24223;SDS011;12359;49.716;9.212;2024-03-02T09:52:15;0.20;;;0.20;;
24223;SDS011;12359;49.716;9.212;2024-03-02T09:54:41;0.20;;;0.20;;
24223;SDS011;12359;49.716;9.212;2024-03-02T09:57:07;0.10;;;0.10;;
24223;SDS011;12359;49.716;9.212;2024-03-02T09:59:32;0.10;;;0.10;;
24223;SDS011;12359;49.716;9.212;2024-03-02T10:01:58;0.15;;;0.15;;
24223;SDS011;12359;49.716;9.212;2024-03-02T10:04:25;0.10;;;0.10;;
24223;SDS011;12359;49.716;9.212;2024-03-02T10:06:55;0.10;;;0.10;;
24223;SDS011;12359;49.716;9.212;2024-03-02T10:09:42;0.10;;;0.10;;
24223;SDS011;12359;49.716;9.212;2024-03-02T10:12:10;0.20;;;0.20;;
24223;SDS011;12359;49.716;9.212;2024-03-02T10:14:37;0.13;;;0.13;;
24223;SDS011;12359;49.716;9.212;2024-03-02T10:17:21;0.10;;;0.10;;
24223;SDS011;12359;49.716;9.212;2024-03-02T10:19:47;0.10;;;0.10;;
24223;SDS011;12359;49.716;9.212;2024-03-02T10:22:13;0.10;;;0.10;;
24223;SDS011;12359;49.716;9.212;2024-03-02T10:24:42;0.10;;;0.10;;
24223;SDS011;12359;49.716;9.212;2024-03-02T10:27:18;0.10;;;0.10;;
24223;SDS011;12359;49.716;9.212;2024-03-02T10:29:52;0.10;;;0.10;;
24223;SDS011;12359;49.716;9.212;2024-03-02T10:32:18;0.10;;;0.10;;
24223;SDS011;12359;49.716;9.212;2024-03-02T10:34:47;0.10;;;0.10;;
24223;SDS011;12359;49.716;9.212;2024-03-02T10:37:13;0.10;;;0.10;;
24223;SDS011;12359;49.716;9.212;2024-03-02T10:39:40;0.10;;;0.10;;
24223;SDS011;12359;49.716;9.212;2024-03-02T10:42:06;0.10;;;0.10;;
24223;SDS011;12359;49.716;9.212;2024-03-02T10:44:32;0.10;;;0.10;;
24223;SDS011;12359;49.716;9.212;2024-03-02T10:47:03;0.10;;;0.10;;
24223;SDS011;12359;49.716;9.212;2024-03-02T10:49:30;0.10;;;0.10;;
24223;SDS011;12359;49.716;9.212;2024-03-02T10:51:57;0.10;;;0.10;;
24223;SDS011;12359;49.716;9.212;2024-03-02T10:54:23;0.10;;;0.10;;
24223;SDS011;12359;49.716;9.212;2024-03-02T10:56:52;0.10;;;0.10;;
24223;SDS011;12359;49.716;9.212;2024-03-02T11:01:53;0.10;;;0.10;;
24223;SDS011;12359;49.716;9.212;2024-03-02T11:04:25;0.10;;;0.10;;
24223;SDS011;12359;49.716;9.212;2024-03-02T11:06:54;0.10;;;0.10;;
24223;SDS011;12359;49.716;9.212;2024-03-02T11:09:42;0.10;;;0.10;;
24223;SDS011;12359;49.716;9.212;2024-03-02T11:12:17;0.10;;;0.10;;
24223;SDS011;12359;49.716;9.212;2024-03-02T11:14:48;0.10;;;0.10;;
24223;SDS011;12359;49.716;9.212;2024-03-02T11:17:19;0.10;;;0.10;;
24223;SDS011;12359;49.716;9.212;2024-03-02T11:19:45;0.10;;;0.10;;
24223;SDS011;12359;49.716;9.212;2024-03-02T11:22:12;0.10;;;0.10;;
24223;SDS011;12359;49.716;9.212;2024-03-02T11:24:38;0.10;;;0.10;;
24223;SDS011;12359;49.716;9.212;2024-03-02T11:27:04;0.10;;;0.10;;
24223;SDS011;12359;49.716;9.212;2024-03-02T11:32:01;0.10;;;0.10;;
24223;SDS011;12359;49.716;9.212;2024-03-02T11:34:31;0.10;;;0.10;;
24223;SDS011;12359;49.716;9.212;2024-03-02T11:36:58;0.10;;;0.10;;
24223;SDS011;12359;49.716;9.212;2024-03-02T11:39:26;0.10;;;0.10;;
24223;SDS011;12359;49.716;9.212;2024-03-02T11:41:52;0.10;;;0.10;;
24223;SDS011;12359;49.716;9.212;2024-03-02T11:44:18;0.10;;;0.10;;
24223;SDS011;12359;49.716;9.212;2024-03-02T11:47:02;0.00;;;0.00;;
24223;SDS011;12359;49.716;9.212;2024-03-02T11:52:11;0.10;;;0.10;;
24223;SDS011;12359;49.716;9.212;2024-03-02T11:54:39;0.10;;;0.10;;
24223;SDS011;12359;49.716;9.212;2024-03-02T11:57:11;0.10;;;0.10;;
24223;SDS011;12359;49.716;9.212;2024-03-02T11:59:37;0.10;;;0.10;;
24223;SDS011;12359;49.716;9.212;2024-03-02T12:02:03;0.00;;;0.00;;
24223;SDS011;12359;49.716;9.212;2024-03-02T12:04:29;0.10;;;0.10;;
24223;SDS011;12359;49.716;9.212;2024-03-02T12:06:56;0.00;;;0.00;;
24223;SDS011;12359;49.716;9.212;2024-03-02T12:09:27;0.10;;;0.10;;
24223;SDS011;12359;49.716;9.212;2024-03-02T12:16:55;0.10;;;0.10;;
24223;SDS011;12359;49.716;9.212;2024-03-02T12:19:21;0.10;;;0.10;;
24223;SDS011;12359;49.716;9.212;2024-03-02T12:21:46;0.00;;;0.00;;
24223;SDS011;12359;49.716;9.212;2024-03-02T12:24:12;0.10;;;0.10;;
24223;SDS011;12359;49.716;9.212;2024-03-02T12:26:38;0.00;;;0.00;;
24223;SDS011;12359;49.716;9.212;2024-03-02T12:29:05;0.10;;;0.10;;
24223;SDS011;12359;49.716;9.212;2024-03-02T12:31:30;0.10;;;0.10;;
24223;SDS011;12359;49.716;9.212;2024-03-02T12:33:57;0.10;;;0.10;;
24223;SDS011;12359;49.716;9.212;2024-03-02T12:36:23;0.10;;;0.10;;
24223;SDS011;12359;49.716;9.212;2024-03-02T12:38:52;0.10;;;0.10;;
24223;SDS011;12359;49.716;9.212;2024-03-02T12:41:18;0.10;;;0.10;;
24223;SDS011;12359;49.716;9.212;2024-03-02T12:43:44;0.10;;;0.10;;
24223;SDS011;12359;49.716;9.212;2024-03-02T12:46:10;0.10;;;0.10;;
24223;SDS011;12359;49.716;9.212;2024-03-02T12:48:36;0.10;;;0.10;;
24223;SDS011;12359;49.716;9.212;2024-03-02T12:51:04;0.10;;;0.10;;
24223;SDS011;12359;49.716;9.212;2024-03-02T12:53:30;0.10;;;0.10;;
24223;SDS011;12359;49.716;9.212;2024-03-02T12:55:56;0.10;;;0.10;;
24223;SDS011;12359;49.716;9.212;2024-03-02T12:58:22;0.10;;;0.10;;
24223;SDS011;12359;49.716;9.212;2024-03-02T13:00:48;0.10;;;0.10;;
24223;SDS011;12359;49.716;9.212;2024-03-02T13:03:14;0.10;;;0.10;;
24223;SDS011;12359;49.716;9.212;2024-03-02T13:05:40;0.10;;;0.10;;
24223;SDS011;12359;49.716;9.212;2024-03-02T13:08:06;0.10;;;0.10;;
24223;SDS011;12359;49.716;9.212;2024-03-02T13:10:32;0.10;;;0.10;;
24223;SDS011;12359;49.716;9.212;2024-03-02T13:12:58;0.10;;;0.10;;
24223;SDS011;12359;49.716;9.212;2024-03-02T13:15:28;0.10;;;0.10;;
24223;SDS011;12359;49.716;9.212;2024-03-02T13:17:54;0.10;;;0.10;;
24223;SDS011;12359;49.716;9.212;2024-03-02T13:20:29;0.10;;;0.10;;
24223;SDS011;12359;49.716;9.212;2024-03-02T13:22:56;0.10;;;0.10;;
24223;SDS011;12359;49.716;9.212;2024-03-02T13:25:22;0.10;;;0.10;;
24223;SDS011;12359;49.716;9.212;2024-03-02T13:27:48;0.10;;;0.10;;
24223;SDS011;12359;49.716;9.212;2024-03-02T13:30:14;0.10;;;0.10;;
24223;SDS011;12359;49.716;9.212;2024-03-02T13:32:39;0.10;;;0.10;;
24223;SDS011;12359;49.716;9.212;2024-03-02T13:35:05;0.10;;;0.10;;
24223;SDS011;12359;49.716;9.212;2024-03-02T13:37:31;0.10;;;0.10;;
24223;SDS011;12359;49.716;9.212;2024-03-02T13:39:57;0.10;;;0.10;;
24223;SDS011;12359;49.716;9.212;2024-03-02T13:42:23;0.10;;;0.10;;
24223;SDS011;12359;49.716;9.212;2024-03-02T13:44:49;0.10;;;0.10;;
24223;SDS011;12359;49.716;9.212;2024-03-02T13:47:16;0.10;;;0.10;;
24223;SDS011;12359;49.716;9.212;2024-03-02T13:49:42;0.10;;;0.10;;
24223;SDS011;12359;49.716;9.212;2024-03-02T13:52:13;0.10;;;0.10;;
24223;SDS011;12359;49.716;9.212;2024-03-02T13:54:40;0.10;;;0.10;;
24223;SDS011;12359;49.716;9.212;2024-03-02T13:57:07;0.10;;;0.10;;
24223;SDS011;12359;49.716;9.212;2024-03-02T13:59:34;0.10;;;0.10;;
24223;SDS011;12359;49.716;9.212;2024-03-02T14:02:01;0.10;;;0.10;;
24223;SDS011;12359;49.716;9.212;2024-03-02T14:04:29;0.10;;;0.10;;
24223;SDS011;12359;49.716;9.212;2024-03-02T14:06:58;0.10;;;0.10;;
24223;SDS011;12359;49.716;9.212;2024-03-02T14:09:24;0.10;;;0.10;;
24223;SDS011;12359;49.716;9.212;2024-03-02T14:11:51;0.10;;;0.10;;
24223;SDS011;12359;49.716;9.212;2024-03-02T14:14:17;0.10;;;0.10;;
24223;SDS011;12359;49.716;9.212;2024-03-02T14:16:43;0.10;;;0.10;;
24223;SDS011;12359;49.716;9.212;2024-03-02T14:19:10;0.10;;;0.10;;
24223;SDS011;12359;49.716;9.212;2024-03-02T14:21:36;0.10;;;0.10;;
24223;SDS011;12359;49.716;9.212;2024-03-02T14:24:02;0.10;;;0.10;;
24223;SDS011;12359;49.716;9.212;2024-03-02T14:26:28;0.10;;;0.10;;
24223;SDS011;12359;49.716;9.212;2024-03-02T14:28:54;0.20;;;0.20;;
24223;SDS011;12359;49.716;9.212;2024-03-02T14:31:20;0.10;;;0.10;;
24223;SDS011;12359;49.716;9.212;2024-03-02T14:33:46;0.10;;;0.10;;
24223;SDS011;12359;49.716;9.212;2024-03-02T14:36:12;0.10;;;0.10;;
24223;SDS011;12359;49.716;9.212;2024-03-02T14:38:38;0.10;;;0.10;;
24223;SDS011;12359;49.716;9.212;2024-03-02T14:41:04;0.10;;;0.10;;
24223;SDS011;12359;49.716;9.212;2024-03-02T14:43:30;0.10;;;0.10;;
24223;SDS011;12359;49.716;9.212;2024-03-02T14:45:56;0.10;;;0.10;;
24223;SDS011;12359;49.716;9.212;2024-03-02T14:48:24;0.20;;;0.20;;
24223;SDS011;12359;49.716;9.212;2024-03-02T14:50:50;0.10;;;0.10;;
24223;SDS011;12359;49.716;9.212;2024-03-02T14:53:16;0.10;;;0.10;;
24223;SDS011;12359;49.716;9.212;2024-03-02T14:55:42;0.10;;;0.10;;
24223;SDS011;12359;49.716;9.212;2024-03-02T14:58:07;0.10;;;0.10;;
24223;SDS011;12359;49.716;9.212;2024-03-02T15:00:33;0.10;;;0.10;;
24223;SDS011;12359;49.716;9.212;2024-03-02T15:02:59;0.10;;;0.10;;